Time;durP1;ratioP1;P1;durP2;ratioP2;P2;SDS_P1;SDS_P2;PMS_P1;PMS_P2;Temp;Humidity;BMP_temperature;BMP_pressure;BME280_temperature;BME280_humidity;BME280_pressure;Samples;Min_cycle;Max_cycle;Signal;HPM_P1;HPM_P2
2023/08/21 00:02:19;;;;;;;8.07;5.60;;;;;;;;;;4997112;28;20046;-60
2023/08/21 00:04:44;;;;;;;6.80;5.37;;;;;;;;;;5004570;28;21112;-59
2023/08/21 00:07:11;;;;;;;7.50;4.87;;;;;;;;;;5015648;28;20821;-59
2023/08/21 00:09:36;;;;;;;7.70;5.57;;;;;;;;;;4987705;28;20030;-60
2023/08/21 00:12:01;;;;;;;12.50;5.80;;;;;;;;;;4996752;28;20029;-59
2023/08/21 00:14:26;;;;;;;7.23;5.20;;;;;;;;;;4975169;28;20022;-60
2023/08/21 00:16:52;;;;;;;6.03;5.10;;;;;;;;;;4996512;28;20788;-59
2023/08/21 00:19:17;;;;;;;8.18;5.25;;;;;;;;;;4998012;28;20549;-58
2023/08/21 00:21:42;;;;;;;7.50;5.10;;;;;;;;;;5008030;28;20155;-59
2023/08/21 00:24:08;;;;;;;6.70;5.07;;;;;;;;;;4998744;28;20272;-59
2023/08/21 00:26:33;;;;;;;8.90;5.07;;;;;;;;;;4999648;28;20275;-59
2023/08/21 00:28:58;;;;;;;6.57;5.03;;;;;;;;;;4998328;28;20318;-59
2023/08/21 00:31:23;;;;;;;8.07;5.35;;;;;;;;;;4997045;28;20280;-58
2023/08/21 00:33:49;;;;;;;6.10;4.73;;;;;;;;;;4983758;28;20022;-59
2023/08/21 00:36:14;;;;;;;6.85;5.30;;;;;;;;;;4997179;28;20344;-60
2023/08/21 00:38:40;;;;;;;7.17;5.20;;;;;;;;;;4998852;28;20112;-61
2023/08/21 00:41:05;;;;;;;7.25;5.30;;;;;;;;;;4999114;28;20244;-60
2023/08/21 00:43:30;;;;;;;5.23;4.50;;;;;;;;;;5020142;28;20052;-59
2023/08/21 00:45:55;;;;;;;7.93;5.63;;;;;;;;;;4996160;28;20280;-58
2023/08/21 00:48:21;;;;;;;10.13;5.47;;;;;;;;;;4999431;28;20257;-59
2023/08/21 00:50:46;;;;;;;7.17;5.33;;;;;;;;;;4996444;28;20129;-59
2023/08/21 00:53:11;;;;;;;7.82;5.07;;;;;;;;;;4999668;28;20804;-61
2023/08/21 00:55:37;;;;;;;9.63;5.70;;;;;;;;;;4978541;28;20030;-61
2023/08/21 00:58:05;;;;;;;7.90;5.32;;;;;;;;;;4999428;28;20278;-60
2023/08/21 01:00:30;;;;;;;10.35;5.90;;;;;;;;;;4978728;28;20030;-60
2023/08/21 01:02:56;;;;;;;8.20;5.30;;;;;;;;;;4999138;28;20026;-60
2023/08/21 01:05:21;;;;;;;6.33;5.37;;;;;;;;;;4995451;28;20418;-60
2023/08/21 01:07:57;;;;;;;7.18;4.88;;;;;;;;;;4981228;28;20588;-60
2023/08/21 01:10:26;;;;;;;9.38;4.88;;;;;;;;;;4976367;28;20124;-59
2023/08/21 01:12:55;;;;;;;7.28;5.25;;;;;;;;;;4999735;28;20448;-60
2023/08/21 01:15:20;;;;;;;6.45;5.28;;;;;;;;;;4995800;28;20036;-60
2023/08/21 01:17:46;;;;;;;9.80;5.20;;;;;;;;;;5014265;28;20038;-59
2023/08/21 01:20:11;;;;;;;5.75;4.72;;;;;;;;;;4998191;28;20052;-59
2023/08/21 01:22:37;;;;;;;6.45;5.25;;;;;;;;;;4999159;28;20030;-59
2023/08/21 01:25:02;;;;;;;5.97;5.13;;;;;;;;;;4999307;28;20113;-59
2023/08/21 01:27:27;;;;;;;7.90;5.35;;;;;;;;;;4998911;28;20028;-59
2023/08/21 01:29:53;;;;;;;7.80;5.47;;;;;;;;;;4981002;28;20393;-59
2023/08/21 01:32:24;;;;;;;7.93;5.40;;;;;;;;;;4976209;28;20522;-59
2023/08/21 01:34:49;;;;;;;10.70;5.75;;;;;;;;;;4954861;28;20064;-59
2023/08/21 01:37:14;;;;;;;7.95;5.53;;;;;;;;;;4951679;28;20137;-59
2023/08/21 01:39:40;;;;;;;7.20;5.65;;;;;;;;;;4969547;28;20055;-59
2023/08/21 01:42:05;;;;;;;8.90;5.63;;;;;;;;;;4980927;28;20065;-58
2023/08/21 01:44:30;;;;;;;6.97;5.18;;;;;;;;;;4998706;28;20112;-59
2023/08/21 01:46:55;;;;;;;7.07;5.20;;;;;;;;;;5006022;28;20029;-59
2023/08/21 01:49:21;;;;;;;7.47;5.30;;;;;;;;;;4999339;28;20289;-59
2023/08/21 01:51:46;;;;;;;7.05;5.40;;;;;;;;;;4980233;28;20342;-60
2023/08/21 01:54:11;;;;;;;7.60;5.20;;;;;;;;;;4995738;28;20400;-59
2023/08/21 01:56:36;;;;;;;9.27;5.20;;;;;;;;;;4997175;28;20092;-59
2023/08/21 01:59:02;;;;;;;6.50;4.87;;;;;;;;;;4998262;28;20069;-60
2023/08/21 02:01:27;;;;;;;6.18;5.40;;;;;;;;;;4979753;28;20088;-59
2023/08/21 02:03:52;;;;;;;6.37;4.87;;;;;;;;;;5011883;28;20743;-59
2023/08/21 02:06:17;;;;;;;5.23;4.73;;;;;;;;;;5017770;28;20113;-59
2023/08/21 02:08:43;;;;;;;8.33;5.27;;;;;;;;;;5007271;28;20420;-60
2023/08/21 02:11:08;;;;;;;5.57;4.80;;;;;;;;;;4994520;28;20061;-60
2023/08/21 02:13:33;;;;;;;6.37;5.10;;;;;;;;;;4998656;28;20277;-59
2023/08/21 02:15:58;;;;;;;8.10;5.00;;;;;;;;;;4998505;28;20030;-60
2023/08/21 02:18:23;;;;;;;6.20;5.05;;;;;;;;;;5009337;28;20052;-61
2023/08/21 02:20:49;;;;;;;6.93;5.33;;;;;;;;;;4980328;28;20029;-60
2023/08/21 02:23:14;;;;;;;6.93;5.47;;;;;;;;;;4997641;28;20292;-60
2023/08/21 02:25:40;;;;;;;7.20;5.47;;;;;;;;;;5010282;28;20517;-60
2023/08/21 02:28:06;;;;;;;6.30;5.22;;;;;;;;;;5000800;28;20268;-60
2023/08/21 02:30:31;;;;;;;6.47;5.22;;;;;;;;;;4996744;28;20029;-61
2023/08/21 02:32:56;;;;;;;7.17;5.43;;;;;;;;;;4998076;28;20041;-60
2023/08/21 02:35:22;;;;;;;7.27;5.50;;;;;;;;;;5006223;28;20296;-58
2023/08/21 02:37:47;;;;;;;7.82;5.45;;;;;;;;;;5018220;28;20864;-59
2023/08/21 02:40:12;;;;;;;7.97;5.47;;;;;;;;;;5004133;28;20030;-59
2023/08/21 02:42:37;;;;;;;6.13;5.15;;;;;;;;;;4997811;28;20041;-59
2023/08/21 02:45:07;;;;;;;7.63;5.97;;;;;;;;;;4998442;28;20120;-59
2023/08/21 02:47:32;;;;;;;;;;;;;;;;;;4994373;28;20342;-61
2023/08/21 02:49:59;;;;;;;7.10;5.78;;;;;;;;;;5001978;28;20007;-58
2023/08/21 02:52:24;;;;;;;7.75;6.03;;;;;;;;;;4999500;28;20091;-59
2023/08/21 02:54:49;;;;;;;8.38;5.63;;;;;;;;;;4998231;28;20108;-60
2023/08/21 02:57:14;;;;;;;8.18;6.00;;;;;;;;;;5005283;28;20140;-60
2023/08/21 02:59:40;;;;;;;7.47;6.43;;;;;;;;;;5010150;28;20029;-59
2023/08/21 03:02:05;;;;;;;7.63;6.10;;;;;;;;;;4997422;28;20862;-59
2023/08/21 03:04:30;;;;;;;9.70;6.57;;;;;;;;;;4976243;28;20579;-61
2023/08/21 03:06:55;;;;;;;6.70;6.00;;;;;;;;;;4999049;28;20148;-59
2023/08/21 03:09:21;;;;;;;7.00;6.03;;;;;;;;;;4990387;28;20269;-61
2023/08/21 03:11:46;;;;;;;7.60;6.07;;;;;;;;;;4997343;28;20287;-60
2023/08/21 03:14:11;;;;;;;8.10;5.63;;;;;;;;;;4997445;28;20050;-59
2023/08/21 03:16:36;;;;;;;8.63;6.27;;;;;;;;;;4998193;28;20058;-60
2023/08/21 03:19:01;;;;;;;7.73;5.63;;;;;;;;;;4997888;28;20304;-60
2023/08/21 03:21:27;;;;;;;10.70;6.60;;;;;;;;;;4994850;28;20069;-61
2023/08/21 03:23:54;;;;;;;8.20;6.57;;;;;;;;;;4979845;28;20041;-59
2023/08/21 03:26:20;;;;;;;9.02;6.18;;;;;;;;;;4998734;28;20507;-59
2023/08/21 03:28:45;;;;;;;8.80;6.30;;;;;;;;;;5007318;28;20057;-58
2023/08/21 03:31:10;;;;;;;7.10;5.80;;;;;;;;;;4999880;28;20045;-59
2023/08/21 03:33:35;;;;;;;7.68;6.10;;;;;;;;;;4997802;28;20081;-59
2023/08/21 03:36:01;;;;;;;7.90;6.13;;;;;;;;;;5013937;28;20164;-62
2023/08/21 03:38:26;;;;;;;8.07;6.68;;;;;;;;;;5000008;28;21077;-59
2023/08/21 03:40:51;;;;;;;8.65;6.97;;;;;;;;;;4999520;28;20181;-60
2023/08/21 03:43:17;;;;;;;7.40;6.17;;;;;;;;;;5006183;28;20070;-61
2023/08/21 03:45:42;;;;;;;8.47;6.13;;;;;;;;;;5017282;28;20033;-58
2023/08/21 03:48:07;;;;;;;6.67;5.80;;;;;;;;;;5016951;28;20079;-59
2023/08/21 03:50:32;;;;;;;8.40;6.20;;;;;;;;;;5005424;28;20894;-59
2023/08/21 03:52:57;;;;;;;9.53;6.43;;;;;;;;;;4996693;28;20034;-60
2023/08/21 03:55:23;;;;;;;8.97;6.50;;;;;;;;;;4980419;28;20041;-62
2023/08/21 03:57:48;;;;;;;11.43;6.60;;;;;;;;;;4978134;28;20692;-60
2023/08/21 04:00:13;;;;;;;7.63;6.40;;;;;;;;;;4997262;28;20053;-60
2023/08/21 04:02:39;;;;;;;11.10;6.47;;;;;;;;;;4993541;28;20304;-61
2023/08/21 04:05:04;;;;;;;9.07;6.53;;;;;;;;;;5007135;28;20025;-62
2023/08/21 04:07:29;;;;;;;8.55;6.13;;;;;;;;;;5001163;28;20835;-59
2023/08/21 04:09:55;;;;;;;8.17;6.30;;;;;;;;;;5016063;28;20034;-58
2023/08/21 04:12:20;;;;;;;8.57;6.17;;;;;;;;;;4982477;28;20038;-59
2023/08/21 04:14:45;;;;;;;10.07;6.87;;;;;;;;;;4983578;28;20351;-60
2023/08/21 04:17:10;;;;;;;8.63;6.63;;;;;;;;;;4995991;28;20058;-59
2023/08/21 04:19:35;;;;;;;9.17;6.30;;;;;;;;;;5000471;28;20289;-61
2023/08/21 04:22:01;;;;;;;9.07;6.13;;;;;;;;;;5000288;28;21347;-59
2023/08/21 04:24:26;;;;;;;10.95;7.22;;;;;;;;;;4982449;28;20050;-61
2023/08/21 04:26:51;;;;;;;9.33;6.47;;;;;;;;;;5003527;28;20041;-59
2023/08/21 04:29:16;;;;;;;8.50;7.03;;;;;;;;;;5010686;28;20451;-62
2023/08/21 04:31:42;;;;;;;11.17;6.43;;;;;;;;;;5000640;28;20061;-59
2023/08/21 04:34:07;;;;;;;8.00;6.50;;;;;;;;;;4979033;28;20305;-59
2023/08/21 04:36:32;;;;;;;9.40;6.73;;;;;;;;;;5000401;28;20304;-60
2023/08/21 04:38:57;;;;;;;10.83;7.40;;;;;;;;;;5000529;28;20284;-59
2023/08/21 04:41:22;;;;;;;10.63;7.50;;;;;;;;;;5000680;28;20038;-59
2023/08/21 04:43:48;;;;;;;9.37;6.83;;;;;;;;;;4982645;28;20033;-59
2023/08/21 04:46:13;;;;;;;8.23;6.90;;;;;;;;;;5000160;28;20285;-59
2023/08/21 04:48:38;;;;;;;8.23;6.50;;;;;;;;;;5001688;28;20103;-59
2023/08/21 04:51:03;;;;;;;9.40;6.73;;;;;;;;;;5005369;28;20045;-59
2023/08/21 04:53:29;;;;;;;8.93;7.03;;;;;;;;;;4999582;28;20280;-59
2023/08/21 04:55:54;;;;;;;10.90;6.63;;;;;;;;;;4999900;28;20128;-60
2023/08/21 04:58:19;;;;;;;9.85;6.60;;;;;;;;;;5012189;28;20034;-61
2023/08/21 05:00:45;;;;;;;9.13;7.07;;;;;;;;;;5012846;28;20121;-59
2023/08/21 05:03:11;;;;;;;10.85;7.20;;;;;;;;;;4999319;28;20288;-59
2023/08/21 05:05:36;;;;;;;9.53;7.20;;;;;;;;;;5018018;28;20041;-60
2023/08/21 05:08:01;;;;;;;10.05;7.50;;;;;;;;;;5011350;28;20038;-59
2023/08/21 05:10:26;;;;;;;8.85;7.60;;;;;;;;;;4999792;28;20056;-59
2023/08/21 05:12:51;;;;;;;11.40;7.60;;;;;;;;;;5003203;28;20045;-59
2023/08/21 05:15:17;;;;;;;11.97;7.67;;;;;;;;;;4979644;28;20104;-58
2023/08/21 05:17:42;;;;;;;12.80;7.68;;;;;;;;;;4968157;28;20363;-60
2023/08/21 05:20:08;;;;;;;12.18;8.57;;;;;;;;;;4969023;28;20530;-59
2023/08/21 05:22:33;;;;;;;13.30;8.15;;;;;;;;;;4952734;28;20049;-61
2023/08/21 05:24:58;;;;;;;16.57;8.43;;;;;;;;;;4967043;28;20026;-60
2023/08/21 05:27:23;;;;;;;10.73;7.90;;;;;;;;;;4968644;28;20030;-59
2023/08/21 05:29:51;;;;;;;10.67;7.60;;;;;;;;;;4969786;28;20038;-61
2023/08/21 05:32:16;;;;;;;13.13;8.05;;;;;;;;;;4967242;28;20308;-59
2023/08/21 05:34:41;;;;;;;12.77;8.18;;;;;;;;;;4966960;28;20045;-61
2023/08/21 05:37:07;;;;;;;13.97;7.90;;;;;;;;;;4966641;28;20046;-59
2023/08/21 05:39:32;;;;;;;13.10;7.70;;;;;;;;;;4968751;28;20100;-60
2023/08/21 05:41:58;;;;;;;13.15;8.20;;;;;;;;;;4966396;28;20042;-60
2023/08/21 05:44:23;;;;;;;12.45;7.85;;;;;;;;;;4949798;28;20063;-60
2023/08/21 05:46:49;;;;;;;9.85;7.82;;;;;;;;;;4972406;28;20046;-59
2023/08/21 05:49:14;;;;;;;12.30;7.78;;;;;;;;;;4969690;28;20420;-60
2023/08/21 05:51:39;;;;;;;11.40;7.47;;;;;;;;;;4971401;28;20100;-61
2023/08/21 05:54:04;;;;;;;11.50;7.57;;;;;;;;;;4967352;28;20125;-59
2023/08/21 05:56:30;;;;;;;11.17;7.37;;;;;;;;;;4968834;28;20687;-60
2023/08/21 05:58:55;;;;;;;11.07;7.93;;;;;;;;;;4966810;28;20297;-60
2023/08/21 06:01:20;;;;;;;8.93;7.30;;;;;;;;;;4970459;28;20042;-60
2023/08/21 06:03:45;;;;;;;14.93;7.83;;;;;;;;;;4969398;28;20038;-60
2023/08/21 06:06:11;;;;;;;14.00;7.50;;;;;;;;;;4970128;28;20125;-61
2023/08/21 06:08:36;;;;;;;13.90;7.60;;;;;;;;;;4968923;28;20194;-61
2023/08/21 06:11:01;;;;;;;13.82;7.32;;;;;;;;;;4964764;28;20095;-60
2023/08/21 06:13:26;;;;;;;10.67;6.70;;;;;;;;;;4969654;28;20131;-59
2023/08/21 06:15:52;;;;;;;9.27;6.60;;;;;;;;;;4969019;28;20301;-60
2023/08/21 06:18:17;;;;;;;10.60;6.32;;;;;;;;;;4969338;28;20038;-61
2023/08/21 06:20:43;;;;;;;9.20;6.43;;;;;;;;;;4967618;28;20869;-62
2023/08/21 06:23:09;;;;;;;9.88;6.03;;;;;;;;;;4968306;28;20504;-61
2023/08/21 06:25:34;;;;;;;12.00;6.13;;;;;;;;;;4968394;28;20054;-61
2023/08/21 06:27:59;;;;;;;10.87;6.23;;;;;;;;;;4965557;28;20194;-60
2023/08/21 06:30:25;;;;;;;10.13;6.13;;;;;;;;;;4967726;28;20300;-61
2023/08/21 06:32:50;;;;;;;7.53;5.55;;;;;;;;;;4969593;28;20564;-59
2023/08/21 06:35:16;;;;;;;9.80;5.87;;;;;;;;;;4969943;28;20121;-63
2023/08/21 06:37:41;;;;;;;10.07;5.80;;;;;;;;;;4957252;28;20053;-61
2023/08/21 06:40:06;;;;;;;9.13;5.40;;;;;;;;;;4926678;28;20050;-59
2023/08/21 06:42:32;;;;;;;13.63;5.82;;;;;;;;;;4970796;28;20057;-60
2023/08/21 06:44:57;;;;;;;9.73;5.38;;;;;;;;;;4970224;28;20039;-61
2023/08/21 06:47:22;;;;;;;7.27;5.57;;;;;;;;;;4967431;28;20123;-61
2023/08/21 06:49:48;;;;;;;9.52;5.80;;;;;;;;;;4970140;28;20596;-61
2023/08/21 06:52:13;;;;;;;7.63;5.43;;;;;;;;;;4970526;28;20046;-61
2023/08/21 06:54:38;;;;;;;12.47;5.50;;;;;;;;;;4970319;28;20034;-60
2023/08/21 06:57:03;;;;;;;10.30;5.67;;;;;;;;;;4970504;28;20056;-60
2023/08/21 06:59:29;;;;;;;10.23;5.50;;;;;;;;;;4968997;28;20771;-59
2023/08/21 07:01:54;;;;;;;7.35;5.00;;;;;;;;;;4969487;28;20038;-59
2023/08/21 07:04:20;;;;;;;11.40;5.13;;;;;;;;;;4968223;28;20171;-60
2023/08/21 07:06:45;;;;;;;7.90;5.22;;;;;;;;;;4967071;28;20580;-60
2023/08/21 07:09:10;;;;;;;7.25;5.03;;;;;;;;;;4967528;28;20509;-59
2023/08/21 07:11:35;;;;;;;14.83;5.83;;;;;;;;;;4967537;28;20058;-58
2023/08/21 07:14:01;;;;;;;12.60;5.70;;;;;;;;;;4967620;28;20108;-60
2023/08/21 07:16:26;;;;;;;8.90;5.73;;;;;;;;;;4966645;28;22796;-60
2023/08/21 07:18:51;;;;;;;9.90;5.50;;;;;;;;;;4962160;28;20048;-59
2023/08/21 07:21:16;;;;;;;9.73;5.70;;;;;;;;;;4967658;28;20531;-60
2023/08/21 07:23:42;;;;;;;12.50;5.97;;;;;;;;;;4967961;28;20049;-59
2023/08/21 07:26:08;;;;;;;9.03;5.43;;;;;;;;;;4967086;28;20699;-59
2023/08/21 07:28:33;;;;;;;11.48;5.65;;;;;;;;;;4968476;28;20038;-58
2023/08/21 07:30:58;;;;;;;8.05;5.30;;;;;;;;;;4969547;28;20040;-58
2023/08/21 07:33:24;;;;;;;9.20;5.10;;;;;;;;;;4970754;28;21001;-59
2023/08/21 07:36:00;;;;;;;10.50;5.32;;;;;;;;;;4970075;28;20038;-59
2023/08/21 07:38:25;;;;;;;8.38;4.82;;;;;;;;;;4971266;28;20504;-58
2023/08/21 07:40:50;;;;;;;11.25;5.07;;;;;;;;;;4969339;28;20050;-59
2023/08/21 07:43:16;;;;;;;8.43;5.18;;;;;;;;;;4972047;28;20439;-59
2023/08/21 07:45:41;;;;;;;7.90;4.97;;;;;;;;;;4970375;28;20109;-59
2023/08/21 07:48:06;;;;;;;8.47;5.20;;;;;;;;;;4970816;28;20517;-59
2023/08/21 07:50:31;;;;;;;7.77;5.27;;;;;;;;;;4973097;28;20586;-60
2023/08/21 07:52:57;;;;;;;9.93;4.90;;;;;;;;;;4982638;28;20371;-59
2023/08/21 07:55:22;;;;;;;6.20;5.10;;;;;;;;;;4999782;28;20072;-60
2023/08/21 07:57:47;;;;;;;7.97;5.20;;;;;;;;;;5000599;28;20300;-59
2023/08/21 08:00:13;;;;;;;8.27;5.18;;;;;;;;;;5019575;28;20513;-60
2023/08/21 08:02:38;;;;;;;8.15;5.03;;;;;;;;;;5012575;28;20592;-59
2023/08/21 08:05:03;;;;;;;6.00;5.03;;;;;;;;;;4982376;28;20062;-59
2023/08/21 08:07:29;;;;;;;7.35;5.30;;;;;;;;;;4999965;28;20511;-59
2023/08/21 08:09:54;;;;;;;10.67;5.47;;;;;;;;;;5008270;28;20034;-61
2023/08/21 08:12:19;;;;;;;8.27;5.37;;;;;;;;;;5017474;28;20280;-59
2023/08/21 08:14:45;;;;;;;11.93;6.05;;;;;;;;;;4998250;28;20033;-64
2023/08/21 08:17:10;;;;;;;10.77;5.20;;;;;;;;;;5009762;28;20061;-59
2023/08/21 08:19:35;;;;;;;8.97;5.40;;;;;;;;;;4992435;28;20038;-58
2023/08/21 08:22:00;;;;;;;7.83;5.13;;;;;;;;;;4997933;28;20041;-59
2023/08/21 08:24:26;;;;;;;8.70;4.97;;;;;;;;;;5003428;28;20165;-60
2023/08/21 08:26:51;;;;;;;10.20;5.37;;;;;;;;;;5008056;28;20638;-59
2023/08/21 08:29:16;;;;;;;7.05;5.18;;;;;;;;;;4998951;28;20361;-59
2023/08/21 08:31:41;;;;;;;6.53;5.00;;;;;;;;;;4997873;28;20057;-59
2023/08/21 08:34:06;;;;;;;6.70;4.60;;;;;;;;;;5001766;28;20037;-60
2023/08/21 08:36:32;;;;;;;7.57;5.23;;;;;;;;;;5013406;28;20450;-60
2023/08/21 08:38:57;;;;;;;6.43;5.20;;;;;;;;;;4990090;28;20073;-59
2023/08/21 08:41:25;;;;;;;8.43;5.20;;;;;;;;;;5004262;28;20133;-60
2023/08/21 08:43:50;;;;;;;7.93;4.97;;;;;;;;;;4981461;28;20030;-60
2023/08/21 08:46:15;;;;;;;7.35;5.05;;;;;;;;;;4993174;28;20042;-60
2023/08/21 08:48:41;;;;;;;6.40;4.75;;;;;;;;;;5020347;28;20049;-60
2023/08/21 08:51:06;;;;;;;7.72;5.40;;;;;;;;;;4990083;28;20042;-61
2023/08/21 08:53:31;;;;;;;7.70;5.00;;;;;;;;;;4994670;28;20041;-60
2023/08/21 08:55:57;;;;;;;8.10;4.82;;;;;;;;;;4986612;28;20034;-59
2023/08/21 08:58:22;;;;;;;6.57;4.80;;;;;;;;;;4981564;28;20470;-58
2023/08/21 09:00:47;;;;;;;8.95;5.32;;;;;;;;;;4983657;28;20420;-59
2023/08/21 09:03:13;;;;;;;8.50;4.80;;;;;;;;;;4983401;28;20034;-60
2023/08/21 09:05:39;;;;;;;10.38;4.95;;;;;;;;;;4986116;28;21181;-60
2023/08/21 09:08:04;;;;;;;6.35;4.75;;;;;;;;;;4976647;28;20101;-58
2023/08/21 09:10:29;;;;;;;7.60;4.95;;;;;;;;;;4979852;28;20046;-60
2023/08/21 09:12:57;;;;;;;8.07;5.03;;;;;;;;;;4974772;28;20481;-59
2023/08/21 09:15:27;;;;;;;7.03;5.13;;;;;;;;;;4988858;28;20299;-60
2023/08/21 09:17:52;;;;;;;;;;;;;;;;;;4998937;28;20145;-60
2023/08/21 09:20:17;;;;;;;7.85;5.13;;;;;;;;;;5000039;28;20000;-60
2023/08/21 09:22:44;;;;;;;7.13;4.80;;;;;;;;;;4985187;28;20062;-60
2023/08/21 09:25:10;;;;;;;9.20;4.97;;;;;;;;;;4976014;28;20434;-61
2023/08/21 09:27:39;;;;;;;6.80;4.50;;;;;;;;;;4979894;28;20034;-60
2023/08/21 09:30:04;;;;;;;5.10;4.38;;;;;;;;;;4993375;28;20041;-61
2023/08/21 09:32:30;;;;;;;7.20;4.70;;;;;;;;;;4992598;28;20415;-59
2023/08/21 09:34:56;;;;;;;8.27;4.72;;;;;;;;;;4991938;28;20642;-60
2023/08/21 09:37:21;;;;;;;9.60;5.00;;;;;;;;;;4988313;28;20042;-59
2023/08/21 09:39:46;;;;;;;10.20;5.30;;;;;;;;;;4966407;28;20042;-61
2023/08/21 09:42:12;;;;;;;10.80;5.03;;;;;;;;;;4988365;28;20314;-61
2023/08/21 09:44:43;;;;;;;10.97;5.17;;;;;;;;;;4983914;28;20055;-60
2023/08/21 09:47:09;;;;;;;11.95;5.35;;;;;;;;;;4989253;28;20288;-61
2023/08/21 09:49:34;;;;;;;12.32;4.80;;;;;;;;;;4984851;28;20046;-62
2023/08/21 09:51:59;;;;;;;8.60;4.83;;;;;;;;;;4985540;28;20057;-62
2023/08/21 09:54:25;;;;;;;6.87;4.83;;;;;;;;;;4972296;28;20045;-58
2023/08/21 09:56:50;;;;;;;9.93;4.53;;;;;;;;;;4998623;28;20403;-60
2023/08/21 09:59:15;;;;;;;6.13;4.53;;;;;;;;;;4983297;28;20838;-61
2023/08/21 10:01:40;;;;;;;5.35;4.50;;;;;;;;;;4972866;28;20516;-60
2023/08/21 10:04:06;;;;;;;7.03;4.80;;;;;;;;;;4980737;28;20205;-60
2023/08/21 10:06:31;;;;;;;7.15;4.80;;;;;;;;;;4992722;28;20052;-60
2023/08/21 10:08:56;;;;;;;7.43;4.83;;;;;;;;;;4973430;28;20043;-60
2023/08/21 10:11:21;;;;;;;6.93;4.50;;;;;;;;;;4982834;28;20289;-60
2023/08/21 10:13:47;;;;;;;6.83;4.70;;;;;;;;;;4963407;28;20291;-60
2023/08/21 10:16:12;;;;;;;7.13;4.87;;;;;;;;;;4964434;28;20034;-61
2023/08/21 10:18:37;;;;;;;7.45;4.50;;;;;;;;;;4978149;28;20279;-60
2023/08/21 10:21:15;;;;;;;7.40;4.70;;;;;;;;;;4990747;28;20021;-61
2023/08/21 10:23:41;;;;;;;5.55;4.38;;;;;;;;;;5001418;28;20116;-61
2023/08/21 10:26:06;;;;;;;6.65;4.63;;;;;;;;;;4987027;28;20101;-61
2023/08/21 10:28:47;;;;;;;6.15;4.70;;;;;;;;;;4986940;28;20026;-67
2023/08/21 10:31:25;;;;;;;6.57;4.32;;;;;;;;;;4985155;28;20034;-60
2023/08/21 10:33:50;;;;;;;7.03;4.40;;;;;;;;;;4983639;28;20137;-60
2023/08/21 10:36:28;;;;;;;6.63;4.33;;;;;;;;;;4998818;28;20109;-59
2023/08/21 10:39:00;;;;;;;6.28;4.20;;;;;;;;;;4980590;28;20304;-60
2023/08/21 10:41:28;;;;;;;6.30;4.20;;;;;;;;;;4985243;28;20045;-61
2023/08/21 10:43:54;;;;;;;7.00;4.10;;;;;;;;;;4972338;28;20672;-59
2023/08/21 10:46:19;;;;;;;5.85;4.32;;;;;;;;;;4982892;28;20165;-61
2023/08/21 10:48:44;;;;;;;6.03;4.50;;;;;;;;;;4999039;28;20401;-60
2023/08/21 10:51:09;;;;;;;5.83;4.40;;;;;;;;;;4989479;28;20424;-60
2023/08/21 10:53:35;;;;;;;5.82;4.35;;;;;;;;;;4987168;28;20288;-61
2023/08/21 10:56:03;;;;;;;4.85;4.35;;;;;;;;;;4989592;28;20030;-60
2023/08/21 10:58:38;;;;;;;6.30;4.40;;;;;;;;;;4980840;28;20707;-60
2023/08/21 11:01:03;;;;;;;4.70;4.07;;;;;;;;;;4982152;23;20045;-60
2023/08/21 11:03:29;;;;;;;5.63;4.27;;;;;;;;;;4968420;28;20046;-60
2023/08/21 11:06:01;;;;;;;4.67;4.00;;;;;;;;;;4961116;28;20038;-59
2023/08/21 11:08:26;;;;;;;4.95;4.10;;;;;;;;;;4980642;28;20078;-59
2023/08/21 11:10:51;;;;;;;4.17;3.63;;;;;;;;;;4972860;28;20069;-60
2023/08/21 11:13:17;;;;;;;5.07;4.20;;;;;;;;;;4954747;28;20053;-59
2023/08/21 11:15:42;;;;;;;5.68;4.20;;;;;;;;;;4970751;28;20038;-59
2023/08/21 11:18:08;;;;;;;5.35;3.90;;;;;;;;;;4965852;28;20099;-58
2023/08/21 11:20:33;;;;;;;5.60;4.23;;;;;;;;;;4981983;23;20082;-61
2023/08/21 11:23:00;;;;;;;5.90;3.95;;;;;;;;;;4972355;28;20030;-62
2023/08/21 11:25:25;;;;;;;5.15;3.85;;;;;;;;;;4984839;28;20494;-60
2023/08/21 11:27:52;;;;;;;4.63;4.20;;;;;;;;;;4993601;28;20041;-60
2023/08/21 11:30:17;;;;;;;4.53;3.72;;;;;;;;;;4976741;28;20088;-62
2023/08/21 11:32:42;;;;;;;4.47;4.00;;;;;;;;;;4977142;28;20516;-61
2023/08/21 11:35:09;;;;;;;4.68;3.78;;;;;;;;;;4979939;28;20371;-61
2023/08/21 11:37:34;;;;;;;4.57;3.75;;;;;;;;;;4979517;28;21049;-61
2023/08/21 11:39:59;;;;;;;5.43;3.80;;;;;;;;;;4980490;28;20034;-61
2023/08/21 11:42:31;;;;;;;4.53;4.00;;;;;;;;;;4984969;28;20069;-61
2023/08/21 11:44:56;;;;;;;4.35;3.20;;;;;;;;;;4987133;28;20038;-61
2023/08/21 11:47:22;;;;;;;4.55;3.80;;;;;;;;;;4996144;28;20416;-60
2023/08/21 11:49:49;;;;;;;4.35;3.67;;;;;;;;;;4995882;28;20467;-61
2023/08/21 11:52:14;;;;;;;4.65;3.80;;;;;;;;;;4998753;28;20033;-60
2023/08/21 11:54:40;;;;;;;5.00;4.07;;;;;;;;;;4994046;28;20041;-60
2023/08/21 11:57:06;;;;;;;4.20;3.80;;;;;;;;;;4996114;28;20034;-62
2023/08/21 11:59:31;;;;;;;6.68;3.72;;;;;;;;;;4995430;28;20108;-61
2023/08/21 12:01:57;;;;;;;4.55;3.58;;;;;;;;;;4996388;28;20111;-60
2023/08/21 12:04:22;;;;;;;3.55;3.25;;;;;;;;;;4996801;28;20443;-62
2023/08/21 12:06:47;;;;;;;5.30;3.67;;;;;;;;;;4998097;28;20030;-58
2023/08/21 12:09:13;;;;;;;4.30;3.47;;;;;;;;;;4997858;28;20029;-61
2023/08/21 12:11:38;;;;;;;4.33;3.67;;;;;;;;;;5011389;28;20041;-60
2023/08/21 12:14:06;;;;;;;4.60;3.95;;;;;;;;;;4991045;28;20367;-60
2023/08/21 12:16:31;;;;;;;5.50;3.50;;;;;;;;;;4991782;28;20044;-61
2023/08/21 12:18:59;;;;;;;4.80;3.58;;;;;;;;;;4996419;28;20411;-60
2023/08/21 12:21:25;;;;;;;3.63;3.13;;;;;;;;;;4998224;28;20080;-59
2023/08/21 12:23:50;;;;;;;4.57;3.38;;;;;;;;;;4995498;28;20054;-60
2023/08/21 12:26:20;;;;;;;4.17;3.63;;;;;;;;;;4999626;28;20145;-62
2023/08/21 12:28:46;;;;;;;5.38;3.60;;;;;;;;;;5008188;28;20260;-60
2023/08/21 12:31:11;;;;;;;4.20;3.30;;;;;;;;;;5000521;28;20064;-61
2023/08/21 12:33:36;;;;;;;4.50;3.60;;;;;;;;;;5000521;28;20440;-60
2023/08/21 12:36:03;;;;;;;3.80;3.23;;;;;;;;;;4981950;28;20273;-60
2023/08/21 12:38:29;;;;;;;4.20;3.78;;;;;;;;;;5000646;28;20359;-60
2023/08/21 12:40:54;;;;;;;4.95;3.47;;;;;;;;;;4998879;28;20404;-62
2023/08/21 12:43:19;;;;;;;4.72;3.40;;;;;;;;;;4997926;28;20022;-61
2023/08/21 12:45:45;;;;;;;3.55;3.15;;;;;;;;;;5005225;28;20398;-60
2023/08/21 12:48:10;;;;;;;3.70;3.05;;;;;;;;;;5004111;28;20084;-60
2023/08/21 12:50:35;;;;;;;4.43;3.10;;;;;;;;;;4999723;28;20018;-60
2023/08/21 12:53:01;;;;;;;4.38;3.47;;;;;;;;;;4999433;28;20018;-60
2023/08/21 12:55:27;;;;;;;3.50;3.20;;;;;;;;;;4999073;28;20895;-60
2023/08/21 12:57:52;;;;;;;3.47;2.95;;;;;;;;;;5005539;28;20060;-61
2023/08/21 13:00:17;;;;;;;3.47;2.88;;;;;;;;;;5009684;28;20096;-60
2023/08/21 13:02:42;;;;;;;4.10;3.10;;;;;;;;;;5019693;28;20048;-61
2023/08/21 13:05:08;;;;;;;3.80;3.07;;;;;;;;;;5017472;28;20028;-60
2023/08/21 13:07:33;;;;;;;3.80;3.37;;;;;;;;;;4998110;28;20273;-60
2023/08/21 13:09:59;;;;;;;3.72;3.28;;;;;;;;;;4998586;28;20780;-61
2023/08/21 13:12:24;;;;;;;3.53;2.90;;;;;;;;;;4981303;28;20465;-61
2023/08/21 13:14:49;;;;;;;3.72;3.33;;;;;;;;;;4998517;28;20514;-60
2023/08/21 13:17:15;;;;;;;3.20;2.80;;;;;;;;;;4979953;28;20096;-61
2023/08/21 13:19:40;;;;;;;4.32;3.35;;;;;;;;;;4997374;28;20271;-60
2023/08/21 13:22:05;;;;;;;3.63;2.87;;;;;;;;;;4998562;28;20028;-60
2023/08/21 13:24:31;;;;;;;3.80;3.30;;;;;;;;;;5004280;28;20269;-60
2023/08/21 13:26:57;;;;;;;3.50;3.20;;;;;;;;;;5001744;28;20367;-60
2023/08/21 13:29:23;;;;;;;3.45;2.90;;;;;;;;;;4980069;28;20054;-59
2023/08/21 13:31:48;;;;;;;4.07;3.00;;;;;;;;;;4998007;28;20108;-60
2023/08/21 13:34:13;;;;;;;3.65;3.05;;;;;;;;;;4981321;28;20033;-59
2023/08/21 13:36:38;;;;;;;3.63;2.90;;;;;;;;;;4998314;28;20056;-60
2023/08/21 13:39:05;;;;;;;4.35;3.17;;;;;;;;;;4979817;28;20665;-60
2023/08/21 13:41:31;;;;;;;3.40;3.10;;;;;;;;;;4998444;28;20037;-61
2023/08/21 13:43:56;;;;;;;4.28;2.92;;;;;;;;;;4998265;28;20034;-60
2023/08/21 13:46:21;;;;;;;3.83;3.30;;;;;;;;;;4997414;28;20038;-61
2023/08/21 13:48:47;;;;;;;3.67;2.90;;;;;;;;;;4998171;28;20476;-60
2023/08/21 13:51:12;;;;;;;4.40;3.15;;;;;;;;;;4998724;28;20824;-60
2023/08/21 13:53:37;;;;;;;3.40;3.10;;;;;;;;;;4998451;28;20022;-60
2023/08/21 13:56:03;;;;;;;3.67;3.15;;;;;;;;;;4996267;28;20053;-61
2023/08/21 13:58:28;;;;;;;3.33;2.80;;;;;;;;;;4997279;28;20065;-60
2023/08/21 14:00:55;;;;;;;3.60;3.10;;;;;;;;;;4998909;28;20513;-60
2023/08/21 14:03:20;;;;;;;4.38;3.00;;;;;;;;;;4998226;28;20269;-59
2023/08/21 14:05:46;;;;;;;4.30;3.10;;;;;;;;;;4998206;28;20030;-60
2023/08/21 14:08:11;;;;;;;3.13;2.43;;;;;;;;;;5002021;28;20669;-61
2023/08/21 14:10:36;;;;;;;3.65;3.15;;;;;;;;;;5017861;28;20276;-61
2023/08/21 14:13:03;;;;;;;4.13;3.05;;;;;;;;;;4999473;28;20404;-61
2023/08/21 14:15:29;;;;;;;3.20;2.80;;;;;;;;;;4984177;28;20488;-60
2023/08/21 14:17:54;;;;;;;3.03;2.60;;;;;;;;;;4995883;28;20045;-62
2023/08/21 14:20:19;;;;;;;3.80;3.13;;;;;;;;;;4993190;28;20617;-61
2023/08/21 14:22:44;;;;;;;5.40;3.10;;;;;;;;;;4996739;28;20046;-60
2023/08/21 14:25:10;;;;;;;3.10;2.80;;;;;;;;;;4996819;28;20289;-60
2023/08/21 14:27:35;;;;;;;3.88;3.20;;;;;;;;;;4978849;28;20034;-61
2023/08/21 14:30:01;;;;;;;3.30;2.90;;;;;;;;;;4996601;28;20506;-60
2023/08/21 14:32:26;;;;;;;3.50;2.67;;;;;;;;;;4962379;28;20117;-60